Merry Christmas and Happy New Year!

 

Sretan Božić i Nova godina!

 

METAR

METAR LDZA 021430Z 08005KT 020V130 CAVOK 22/07 Q1012 TEMPO 04008KT =
METAR LDSP 021430Z 36010KT 300V040 9999 FEW070 26/05 Q1010 NOSIG=
METAR LDDU 021430Z 32012KT 290V020 CAVOK 21/12 Q1010 NOSIG =
METAR LDZD 021430Z 28014KT 9999 FEW050 25/11 Q1012 NOSIG =
METAR LDPL 021430Z 26013KT CAVOK 24/09 Q1012 NOSIG=
METAR LDOS 021430Z 05010KT 020V090 9999 FEW033 SCT040 15/11 Q1011
RETS=
METAR LDSB 021400Z 01010KT 330V040 CAVOK 22/05 Q1012=
METAR LDRI 021430Z 33009KT 9999 FEW046 21/15 Q1012=

TAF

TAF COR LDZA 021126Z 0212/0312 35005KT CAVOK
                     TX24/0214Z TN10/0304Z
               TEMPO 0212/0221 04008KT=
TAF LDSP 021125Z 0212/0312 32012KT 9999 FEW060
                 TX26/0213Z TN16/0304Z
           BECMG 0218/0220 02006KT
           BECMG 0309/0311 23012KT=
TAF LDDU 021125Z 0212/0312 29012KT 9999 FEW060
                 TX22/0213Z TN17/0304Z
           BECMG 0217/0219 02018KT
    PROB40 TEMPO 0220/0223 02022G33KT
    PROB30 TEMPO 0221/0304 VRB18G30KT
           BECMG 0306/0308 24008KT=
TAF LDZD 021125Z 0212/0312 32012KT 9999 FEW050
                 TX25/0212Z TN10/0304Z
           BECMG 0217/0219 VRB02KT
           BECMG 0309/0311 27010KT=
TAF LDPL 021125Z 0212/0312 27012KT 9999 FEW035
                 TX24/0212Z TN14/0304Z
    PROB30 TEMPO 0212/0216 TSRA FEW035CB SCT040
           BECMG 0216/0218 05005KT
           BECMG 0310/0312 24007KT
    PROB30 TEMPO 0310/0312 TS FEW040CB=
TAF AMD LDOS 021357Z 0214/0312 29012KT CAVOK
                     TX22/0214Z TN10/0304Z
        PROB40 TEMPO 0214/0217 05015KT 3000 TSRA FEW035CB BKN045
               BECMG 0302/0304 28010KT
               TEMPO 0309/0312 SHRA FEW030TCU
               BECMG 0310/0312 24005KT=
TAF LDSB 021125Z 0212/0312 35012KT 9999 FEW060
                 TX22/0213Z TN14/0304Z
           BECMG 0218/0220 02008KT
           BECMG 0309/0311 22010KT=
TAF LDRI 021125Z 0212/0312 24005KT 9999 FEW040
                 TX24/0212Z TN15/0304Z
    PROB30 TEMPO 0212/0217 34012KT TSRA FEW040CB SCT050
    PROB30 TEMPO 0310/0312 TS FEW040CB=

SIGMET

AIRMET

LDZO AIRMET 4 VALID 021200/021500 LDZA-
LDZO ZAGREB FIR MOD MTW FCST WI N4635 E01627 - N4546 E01810 - N4506
E01818 - N4439 E01528 - N4541 E01434 - N4635 E01627 ABV 7000FT STNR
WKN=
LDZO AIRMET 6 VALID 021400/021600 LDZA-
LDZO ZAGREB FIR ISOL TS FCST NE OF LINE N4529 E01349 - N4449 E01459
- N4447 E01557 TOP ABV FL100 STNR NC=

Napomena

Ukoliko se brzina i smjer vjetra ne mogu odrediti zbog privremenog kvara sustava/indikatora,
informacija o vjetru u METAR izvješću bit će prikazana kao "/////KT".

 

Disclaimer

 

In case of temporary system/sensor failure, wind speed and direction data will be represented as "/////KT" in METAR report.

 

If you cannot log in with your user account, please contact stjepko.jancijev@crocontrol.hr.
Specifically, the website deactivates user accounts that have not been used for more than 365 days, so they must be reactivated.
 

         

      Politika MET podataka      

 

Ukoliko se svojim korisničkim računom ne možete logirati na web stranicu, molim vas da se obratite na stjepko.jancijev@crocontrol.hr.

Naime, web stranica deaktivira korisničke račune koji nisu korišteni više od 365 dana te ih je potrebno ponovno aktivirati.